首页
METAR-TAF:

METAR-TAF

机场 :

Cranfield, 英格兰

纬度: 52-04N, 经度: 000-37W, 海拔: 111米

当前天气观测

该预报发布于9小时和9分钟前的16:20 UTC
风速5节,风向西
温度 13°C
湿度 67%
气压 1002 hPa
能见度10公里或以上
少量云层高于3200英尺

METAR: EGTC 161620Z 26005KT 9999 FEW032 13/07 Q1002

时间: 02:29 (01:29 UTC)

预报

该预报发布于11小时和25分钟前的14:04 UTC
预报有效从16日的 15点(UTC)到 16日的 18点(UTC)
风速8节,风向西
能见度10公里或以上
散云层高于2500英尺

TAF: EGTC 161404Z 1615/1618 26008KT 9999 SCT025

超过4000个机场的气象观测和天气预报(METAR&TAF报告)。

可查询的气象台以黄色和红色小点在地图上表示。

将鼠标移到小点上方,可查看气象台名称。

然后点击查看天气观测和预报。

如需切换地图:点击带黑十字的绿色按钮放大地图;点击带横线的绿色按钮缩小地图;或者点击绿色箭头查看邻近地区的地图。


METAR-TAF: